Glendive, Montana
Current Conditions -  °F | °C
As of 2:15 AM on Sunday 21 Dec 2014 (Local Time) from KGDV Reporting Station
Clear Clear  
Wind Chill: 12°   Ceiling: Unl
Heat Index: 23°   Visibility: 10mi
Dew Point: 19°   Wind: 10mph
Humidity: 86%   Direction: 200°SSW
Pressure: 29.61"   Gusts: NA
Location:  47.11°N, 104.71°W
Report Text: KGDV 210915Z AUTO 20009KT 10SM CLR M05/M07 A2961 RMK AO1
Loading
Personal Weather Stations






























Interactive Weather Map New forecast layout! Learn more

10-Day Weather Forecast

Advertisements
Track Severe Weather on mobile